Time,TemperatureF,DewpointF,PressureIn,WindDirection,WindDirectionDegrees,WindSpeedMPH,WindSpeedGustMPH,Humidity,HourlyPrecipIn,Conditions,Clouds,dailyrainin,SoftwareType,DateUTC
2013-01-01 00:03:00,47.0,28.8,30.10,WSW,249,2.0,3.0,49,0.00,,,0.00,Wunderground v.1.15,2013-01-01 05:03:00,
2013-01-01 00:12:00,47.3,29.1,30.09,SE,128,1.0,7.0,49,0.00,,,0.00,Wunderground v.1.15,2013-01-01 05:12:00,
2013-01-01 00:18:00,47.4,29.2,30.10,SW,229,2.0,3.0,49,0.00,,,0.00,Wunderground v.1.15,2013-01-01 05:18:00,
2013-01-01 00:23:00,47.4,29.2,30.10,NNE,13,1.0,3.0,49,0.00,,,0.00,Wunderground v.1.15,2013-01-01 05:23:00,
2013-01-01 00:32:00,47.5,29.3,30.10,WSW,255,2.0,8.0,49,0.00,,,0.00,Wunderground v.1.15,2013-01-01 05:32:00,
2013-01-01 00:37:00,47.5,29.3,30.10,SW,227,2.0,8.0,49,0.00,,,0.00,Wunderground v.1.15,2013-01-01 05:37:00,
2013-01-01 00:43:00,47.5,29.3,30.09,West,281,2.0,8.0,49,0.00,,,0.00,Wunderground v.1.15,2013-01-01 05:43:00,
2013-01-01 00:48:00,47.5,29.3,30.09,SSE,167,2.0,2.0,49,0.00,,,0.00,Wunderground v.1.15,2013-01-01 05:48:00,
2013-01-01 00:57:00,47.4,29.2,30.08,South,190,2.0,2.0,49,0.00,,,0.00,Wunderground v.1.15,2013-01-01 05:57:00,
2013-01-01 01:03:00,47.3,29.1,30.08,South,182,1.0,8.0,49,0.00,,,0.00,Wunderground v.1.15,2013-01-01 06:03:00,
2013-01-01 01:08:00,47.3,29.1,30.08,WSW,250,1.0,8.0,49,0.00,,,0.00,Wunderground v.1.15,2013-01-01 06:08:00,
2013-01-01 01:17:00,47.4,29.2,30.07,SSE,162,2.0,2.0,49,0.00,,,0.00,Wunderground v.1.15,2013-01-01 06:17:00,
2013-01-01 01:23:00,47.4,29.7,30.06,South,183,1.0,8.0,50,0.00,,,0.00,Wunderground v.1.15,2013-01-01 06:23:00,
2013-01-01 01:28:00,47.5,29.3,30.07,South,188,1.0,1.0,49,0.00,,,0.00,Wunderground v.1.15,2013-01-01 06:28:00,
2013-01-01 01:38:00,47.4,29.7,30.06,SSW,206,0.0,8.0,50,0.00,,,0.00,Wunderground v.1.15,2013-01-01 06:38:00,
2013-01-01 01:43:00,47.2,30.0,30.06,SSW,206,0.0,8.0,51,0.00,,,0.00,Wunderground v.1.15,2013-01-01 06:43:00,
2013-01-01 01:48:00,47.0,30.7,30.06,SSW,206,0.0,8.0,53,0.00,,,0.00,Wunderground v.1.15,2013-01-01 06:48:00,
2013-01-01 01:57:00,46.4,30.2,30.05,SSE,161,0.0,8.0,53,0.00,,,0.00,Wunderground v.1.15,2013-01-01 06:57:00,
2013-01-01 02:03:00,46.2,30.9,30.06,South,174,0.0,8.0,55,0.00,,,0.00,Wunderground v.1.15,2013-01-01 07:03:00,
2013-01-01 02:08:00,46.0,31.2,30.06,South,186,0.0,8.0,56,0.00,,,0.00,Wunderground v.1.15,2013-01-01 07:08:00,
2013-01-01 02:17:00,45.5,32.0,30.06,South,186,0.0,8.0,59,0.00,,,0.00,Wunderground v.1.15,2013-01-01 07:17:00,
2013-01-01 02:23:00,45.3,31.8,30.06,South,186,0.0,8.0,59,0.00,,,0.00,Wunderground v.1.15,2013-01-01 07:23:00,
2013-01-01 02:28:00,45.2,31.3,30.06,South,186,0.0,8.0,58,0.00,,,0.00,Wunderground v.1.15,2013-01-01 07:28:00,
2013-01-01 02:37:00,45.1,32.4,30.06,South,186,0.0,8.0,61,0.00,,,0.00,Wunderground v.1.15,2013-01-01 07:37:00,
2013-01-01 02:43:00,44.9,33.5,30.05,South,186,0.0,8.0,64,0.00,,,0.00,Wunderground v.1.15,2013-01-01 07:43:00,
2013-01-01 02:48:00,44.5,33.1,30.05,South,186,0.0,8.0,64,0.00,,,0.00,Wunderground v.1.15,2013-01-01 07:48:00,
2013-01-01 02:57:00,44.3,31.7,30.05,South,186,0.0,8.0,61,0.00,,,0.00,Wunderground v.1.15,2013-01-01 07:57:00,
2013-01-01 03:02:00,44.3,32.5,30.07,South,186,0.0,8.0,63,0.00,,,0.00,Wunderground v.1.15,2013-01-01 08:02:00,
2013-01-01 03:08:00,44.3,32.5,30.07,South,186,0.0,8.0,63,0.00,,,0.00,Wunderground v.1.15,2013-01-01 08:08:00,
2013-01-01 03:13:00,44.2,33.2,30.07,South,186,0.0,8.0,65,0.00,,,0.00,Wunderground v.1.15,2013-01-01 08:13:00,
2013-01-01 03:22:00,44.0,33.0,30.06,South,186,0.0,8.0,65,0.00,,,0.00,Wunderground v.1.15,2013-01-01 08:22:00,
2013-01-01 03:28:00,44.0,34.1,30.06,South,186,0.0,8.0,68,0.00,,,0.00,Wunderground v.1.15,2013-01-01 08:28:00,
2013-01-01 03:33:00,43.8,33.2,30.05,South,186,0.0,8.0,66,0.00,,,0.00,Wunderground v.1.15,2013-01-01 08:33:00,
2013-01-01 03:38:00,43.7,33.1,30.04,South,186,0.0,8.0,66,0.00,,,0.00,Wunderground v.1.15,2013-01-01 08:38:00,
2013-01-01 03:47:00,43.6,34.8,30.05,South,186,0.0,8.0,71,0.00,,,0.00,Wunderground v.1.15,2013-01-01 08:47:00,
2013-01-01 03:53:00,43.4,34.6,30.05,South,186,0.0,8.0,71,0.00,,,0.00,Wunderground v.1.15,2013-01-01 08:53:00,
2013-01-01 04:02:00,43.3,35.9,30.06,South,185,0.0,8.0,75,0.00,,,0.00,Wunderground v.1.15,2013-01-01 09:02:00,
2013-01-01 04:07:00,43.2,33.3,30.06,South,186,0.0,8.0,68,0.00,,,0.00,Wunderground v.1.15,2013-01-01 09:07:00,
2013-01-01 04:13:00,43.2,35.8,30.06,South,186,0.0,8.0,75,0.00,,,0.00,Wunderground v.1.15,2013-01-01 09:13:00,
2013-01-01 04:18:00,43.1,35.0,30.05,South,186,0.0,8.0,73,0.00,,,0.00,Wunderground v.1.15,2013-01-01 09:18:00,
2013-01-01 04:27:00,42.9,35.5,30.04,South,186,0.0,8.0,75,0.00,,,0.00,Wunderground v.1.15,2013-01-01 09:27:00,
2013-01-01 04:33:00,42.9,35.9,30.04,South,186,0.0,8.0,76,0.00,,,0.00,Wunderground v.1.15,2013-01-01 09:33:00,
2013-01-01 04:38:00,42.7,35.0,30.03,South,186,0.0,8.0,74,0.00,,,0.00,Wunderground v.1.15,2013-01-01 09:38:00,
2013-01-01 04:47:00,42.7,35.0,30.03,South,186,0.0,8.0,74,0.00,,,0.00,Wunderground v.1.15,2013-01-01 09:47:00,
2013-01-01 04:52:00,42.7,35.3,30.03,South,186,0.0,8.0,75,0.00,,,0.00,Wunderground v.1.15,2013-01-01 09:52:00,
2013-01-01 04:58:00,42.7,35.7,30.04,South,186,0.0,8.0,76,0.00,,,0.00,Wunderground v.1.15,2013-01-01 09:58:00,
2013-01-01 05:03:00,42.6,34.2,30.04,South,186,0.0,8.0,72,0.00,,,0.00,Wunderground v.1.15,2013-01-01 10:03:00,
2013-01-01 05:12:00,42.6,35.2,30.05,South,186,0.0,8.0,75,0.00,,,0.00,Wunderground v.1.15,2013-01-01 10:12:00,
2013-01-01 05:18:00,42.5,34.8,30.05,South,186,0.0,8.0,74,0.00,,,0.00,Wunderground v.1.15,2013-01-01 10:18:00,
2013-01-01 05:23:00,42.5,33.8,30.05,South,186,0.0,8.0,71,0.00,,,0.00,Wunderground v.1.15,2013-01-01 10:23:00,
2013-01-01 05:28:00,42.5,34.8,30.05,South,186,0.0,8.0,74,0.00,,,0.00,Wunderground v.1.15,2013-01-01 10:28:00,
2013-01-01 05:38:00,42.7,35.0,30.06,South,186,0.0,8.0,74,0.00,,,0.00,Wunderground v.1.15,2013-01-01 10:38:00,
2013-01-01 05:43:00,42.7,35.3,30.06,South,186,0.0,8.0,75,0.00,,,0.00,Wunderground v.1.15,2013-01-01 10:43:00,
2013-01-01 05:52:00,42.7,35.3,30.04,South,186,0.0,8.0,75,0.00,,,0.00,Wunderground v.1.15,2013-01-01 10:52:00,
2013-01-01 05:58:00,42.7,35.0,30.05,South,186,0.0,8.0,74,0.00,,,0.00,Wunderground v.1.15,2013-01-01 10:58:00,
2013-01-01 06:03:00,42.7,35.3,30.05,South,186,0.0,8.0,75,0.00,,,0.00,Wunderground v.1.15,2013-01-01 11:03:00,
2013-01-01 06:08:00,42.8,34.4,30.06,South,186,0.0,8.0,72,0.00,,,0.00,Wunderground v.1.15,2013-01-01 11:08:00,
2013-01-01 06:18:00,43.0,34.2,30.06,South,186,0.0,8.0,71,0.00,,,0.00,Wunderground v.1.15,2013-01-01 11:18:00,
2013-01-01 06:23:00,43.0,35.6,30.05,South,186,0.0,8.0,75,0.00,,,0.00,Wunderground v.1.15,2013-01-01 11:23:00,
2013-01-01 06:32:00,43.0,36.0,30.05,South,186,0.0,8.0,76,0.00,,,0.00,Wunderground v.1.15,2013-01-01 11:32:00,
2013-01-01 06:37:00,43.0,36.0,30.06,South,186,0.0,8.0,76,0.00,,,0.00,Wunderground v.1.15,2013-01-01 11:37:00,
2013-01-01 06:43:00,43.0,36.0,30.06,South,186,0.0,8.0,76,0.00,,,0.00,Wunderground v.1.15,2013-01-01 11:43:00,
2013-01-01 06:48:00,42.9,35.2,30.07,South,186,0.0,8.0,74,0.00,,,0.00,Wunderground v.1.15,2013-01-01 11:48:00,
2013-01-01 06:58:00,43.1,35.4,30.06,South,186,0.0,8.0,74,0.00,,,0.00,Wunderground v.1.15,2013-01-01 11:58:00,
2013-01-01 07:03:00,43.1,36.7,30.06,South,186,0.0,8.0,78,0.00,,,0.00,Wunderground v.1.15,2013-01-01 12:03:00,
2013-01-01 07:12:00,42.9,36.8,30.05,South,186,0.0,8.0,79,0.00,,,0.00,Wunderground v.1.15,2013-01-01 12:12:00,
2013-01-01 07:17:00,42.8,36.7,30.07,South,186,0.0,8.0,79,0.00,,,0.00,Wunderground v.1.15,2013-01-01 12:17:00,
2013-01-01 07:23:00,42.8,36.7,30.06,South,186,0.0,8.0,79,0.00,,,0.00,Wunderground v.1.15,2013-01-01 12:23:00,
2013-01-01 07:32:00,42.8,37.1,30.06,South,186,0.0,8.0,80,0.00,,,0.00,Wunderground v.1.15,2013-01-01 12:32:00,
2013-01-01 07:38:00,42.8,36.4,30.07,South,186,0.0,8.0,78,0.00,,,0.00,Wunderground v.1.15,2013-01-01 12:38:00,
2013-01-01 07:43:00,42.8,36.7,30.07,South,186,0.0,8.0,79,0.00,,,0.00,Wunderground v.1.15,2013-01-01 12:43:00,
2013-01-01 07:52:00,42.9,36.8,30.06,South,186,0.0,8.0,79,0.00,,,0.00,Wunderground v.1.15,2013-01-01 12:52:00,
2013-01-01 07:57:00,42.8,36.4,30.07,South,186,0.0,8.0,78,0.00,,,0.00,Wunderground v.1.15,2013-01-01 12:57:00,
2013-01-01 08:03:00,42.8,35.8,30.07,South,186,0.0,8.0,76,0.00,,,0.00,Wunderground v.1.15,2013-01-01 13:03:00,
2013-01-01 08:08:00,42.9,35.5,30.07,South,186,0.0,8.0,75,0.00,,,0.00,Wunderground v.1.15,2013-01-01 13:08:00,
2013-01-01 08:17:00,43.0,35.6,30.06,South,182,0.0,8.0,75,0.00,,,0.00,Wunderground v.1.15,2013-01-01 13:17:00,
2013-01-01 08:23:00,43.1,36.0,30.05,South,183,0.0,8.0,76,0.00,,,0.00,Wunderground v.1.15,2013-01-01 13:23:00,
2013-01-01 08:28:00,43.1,35.7,30.05,SSE,148,0.0,8.0,75,0.00,,,0.00,Wunderground v.1.15,2013-01-01 13:28:00,
2013-01-01 08:37:00,43.1,36.4,30.05,SSE,148,0.0,8.0,77,0.00,,,0.00,Wunderground v.1.15,2013-01-01 13:37:00,
2013-01-01 08:43:00,43.2,36.1,30.06,SSE,148,0.0,8.0,76,0.00,,,0.00,Wunderground v.1.15,2013-01-01 13:43:00,
2013-01-01 08:48:00,43.3,36.6,30.07,NNW,338,0.0,8.0,77,0.00,,,0.00,Wunderground v.1.15,2013-01-01 13:48:00,
2013-01-01 08:58:00,43.3,37.2,30.07,SSW,195,0.0,8.0,79,0.00,,,0.00,Wunderground v.1.15,2013-01-01 13:58:00,
2013-01-01 09:03:00,43.3,37.2,30.07,SSW,195,0.0,8.0,79,0.00,,,0.00,Wunderground v.1.15,2013-01-01 14:03:00,
2013-01-01 09:08:00,43.3,37.9,30.06,SSW,195,0.0,8.0,81,0.00,,,0.01,Wunderground v.1.15,2013-01-01 14:08:00,
2013-01-01 09:17:00,43.3,38.2,30.07,SSW,195,0.0,8.0,82,0.00,,,0.01,Wunderground v.1.15,2013-01-01 14:17:00,
2013-01-01 09:23:00,43.3,38.5,30.08,SSW,195,0.0,8.0,83,0.00,,,0.01,Wunderground v.1.15,2013-01-01 14:23:00,
2013-01-01 09:28:00,43.3,38.8,30.08,SSW,195,0.0,8.0,84,0.00,,,0.01,Wunderground v.1.15,2013-01-01 14:28:00,
2013-01-01 09:38:00,43.1,39.2,30.08,SSW,195,0.0,8.0,86,0.00,,,0.02,Wunderground v.1.15,2013-01-01 14:38:00,
2013-01-01 09:43:00,43.1,39.8,30.07,SSE,159,0.0,8.0,88,0.00,,,0.02,Wunderground v.1.15,2013-01-01 14:43:00,
2013-01-01 09:48:00,43.0,39.7,30.07,SSE,159,0.0,8.0,88,0.00,,,0.02,Wunderground v.1.15,2013-01-01 14:48:00,
2013-01-01 09:57:00,42.9,39.9,30.06,SSE,159,0.0,8.0,89,0.00,,,0.02,Wunderground v.1.15,2013-01-01 14:57:00,
2013-01-01 10:03:00,42.9,39.9,30.07,SSE,164,0.0,8.0,89,0.00,,,0.02,Wunderground v.1.15,2013-01-01 15:03:00,
2013-01-01 10:08:00,43.1,40.1,30.06,SSE,151,0.0,8.0,89,0.00,,,0.02,Wunderground v.1.15,2013-01-01 15:08:00,
2013-01-01 10:17:00,43.4,40.7,30.04,SSE,164,1.0,1.0,90,0.00,,,0.02,Wunderground v.1.15,2013-01-01 15:17:00,
2013-01-01 10:22:00,43.6,40.6,30.04,SSW,193,1.0,8.0,89,0.00,,,0.02,Wunderground v.1.15,2013-01-01 15:22:00,
2013-01-01 10:28:00,43.7,40.7,30.05,South,182,1.0,8.0,89,0.00,,,0.02,Wunderground v.1.15,2013-01-01 15:28:00,
2013-01-01 10:33:00,43.7,40.4,30.05,South,173,1.0,8.0,88,0.00,,,0.02,Wunderground v.1.15,2013-01-01 15:33:00,
2013-01-01 10:42:00,43.8,40.8,30.05,SSE,162,1.0,8.0,89,0.00,,,0.02,Wunderground v.1.15,2013-01-01 15:42:00,
2013-01-01 10:48:00,43.9,41.2,30.04,South,184,1.0,8.0,90,0.00,,,0.02,Wunderground v.1.15,2013-01-01 15:48:00,
2013-01-01 10:53:00,44.0,41.3,30.05,South,172,1.0,8.0,90,0.00,,,0.02,Wunderground v.1.15,2013-01-01 15:53:00,
2013-01-01 10:58:00,44.1,41.4,30.03,South,190,2.0,8.0,90,0.00,,,0.02,Wunderground v.1.15,2013-01-01 15:58:00,
2013-01-01 11:07:00,44.4,41.9,30.03,SSW,201,1.0,8.0,91,0.00,,,0.02,Wunderground v.1.15,2013-01-01 16:07:00,
2013-01-01 11:13:00,44.6,42.1,30.03,SSW,207,1.0,8.0,91,0.00,,,0.02,Wunderground v.1.15,2013-01-01 16:13:00,
2013-01-01 11:18:00,44.6,42.1,30.02,South,181,2.0,2.0,91,0.00,,,0.02,Wunderground v.1.15,2013-01-01 16:18:00,
2013-01-01 11:27:00,44.7,42.5,30.00,SSW,199,1.0,8.0,92,0.00,,,0.02,Wunderground v.1.15,2013-01-01 16:27:00,
2013-01-01 11:33:00,44.8,42.6,30.00,South,186,2.0,8.0,92,0.00,,,0.02,Wunderground v.1.15,2013-01-01 16:33:00,
2013-01-01 11:38:00,44.9,42.7,30.00,SSW,200,2.0,2.0,92,0.00,,,0.02,Wunderground v.1.15,2013-01-01 16:38:00,
2013-01-01 11:47:00,45.0,43.1,29.99,South,169,1.0,8.0,93,0.00,,,0.02,Wunderground v.1.15,2013-01-01 16:47:00,
2013-01-01 11:53:00,45.1,43.2,30.00,SSW,199,1.0,8.0,93,0.00,,,0.02,Wunderground v.1.15,2013-01-01 16:53:00,
2013-01-01 11:58:00,45.2,43.3,29.99,WSW,251,1.0,1.0,93,0.00,,,0.02,Wunderground v.1.15,2013-01-01 16:58:00,
2013-01-01 12:07:00,45.4,43.5,29.99,SSW,198,1.0,8.0,93,0.00,,,0.02,Wunderground v.1.15,2013-01-01 17:07:00,
2013-01-01 12:12:00,45.5,43.6,29.98,South,184,2.0,8.0,93,0.00,,,0.02,Wunderground v.1.15,2013-01-01 17:12:00,
2013-01-01 12:18:00,45.5,43.3,29.98,SSE,168,2.0,8.0,92,0.00,,,0.02,Wunderground v.1.15,2013-01-01 17:18:00,
2013-01-01 12:23:00,45.6,43.4,29.97,South,187,2.0,8.0,92,0.00,,,0.02,Wunderground v.1.15,2013-01-01 17:23:00,
2013-01-01 12:33:00,45.8,43.6,29.98,SSE,156,2.0,8.0,92,0.00,,,0.02,Wunderground v.1.15,2013-01-01 17:33:00,
2013-01-01 12:38:00,45.9,43.7,29.98,SW,224,2.0,8.0,92,0.00,,,0.02,Wunderground v.1.15,2013-01-01 17:38:00,
2013-01-01 12:47:00,45.9,43.7,29.98,SSW,209,1.0,8.0,92,0.00,,,0.02,Wunderground v.1.15,2013-01-01 17:47:00,
2013-01-01 12:52:00,45.9,43.7,29.97,South,184,0.0,8.0,92,0.00,,,0.02,Wunderground v.1.15,2013-01-01 17:52:00,
2013-01-01 12:58:00,45.9,43.7,29.97,SW,227,0.0,8.0,92,0.00,,,0.02,Wunderground v.1.15,2013-01-01 17:58:00,
2013-01-01 13:03:00,46.0,43.8,29.97,WSW,257,1.0,8.0,92,0.00,,,0.03,Wunderground v.1.15,2013-01-01 18:03:00,
2013-01-01 13:12:00,46.2,44.3,29.99,WSW,252,2.0,8.0,93,0.00,,,0.03,Wunderground v.1.15,2013-01-01 18:12:00,
2013-01-01 13:18:00,46.3,44.4,29.99,NNW,333,1.0,8.0,93,0.00,,,0.03,Wunderground v.1.15,2013-01-01 18:18:00,
2013-01-01 13:23:00,46.4,44.5,29.99,NW,304,2.0,8.0,93,0.00,,,0.04,Wunderground v.1.15,2013-01-01 18:23:00,
2013-01-01 13:28:00,46.5,44.6,29.99,SW,214,2.0,2.0,93,0.00,,,0.04,Wunderground v.1.15,2013-01-01 18:28:00,
2013-01-01 13:37:00,46.7,44.8,29.97,SW,236,1.0,1.0,93,0.00,,,0.04,Wunderground v.1.15,2013-01-01 18:37:00,
2013-01-01 13:43:00,46.7,45.1,29.97,SSW,198,1.0,8.0,94,0.00,,,0.04,Wunderground v.1.15,2013-01-01 18:43:00,
2013-01-01 13:48:00,46.8,45.2,29.96,SW,227,1.0,8.0,94,0.00,,,0.04,Wunderground v.1.15,2013-01-01 18:48:00,
2013-01-01 13:57:00,46.9,45.3,29.95,South,190,1.0,8.0,94,0.00,,,0.04,Wunderground v.1.15,2013-01-01 18:57:00,
2013-01-01 14:03:00,46.9,45.3,29.95,SSW,200,1.0,8.0,94,0.00,,,0.04,Wunderground v.1.15,2013-01-01 19:03:00,
2013-01-01 14:08:00,46.9,45.3,29.94,SSE,159,1.0,8.0,94,0.00,,,0.04,Wunderground v.1.15,2013-01-01 19:08:00,
2013-01-01 14:13:00,47.0,45.4,29.94,South,171,2.0,8.0,94,0.00,,,0.04,Wunderground v.1.15,2013-01-01 19:13:00,
2013-01-01 14:23:00,47.0,45.6,29.94,SSE,150,1.0,8.0,95,0.00,,,0.04,Wunderground v.1.15,2013-01-01 19:23:00,
2013-01-01 14:28:00,47.1,45.7,29.94,SSW,203,1.0,8.0,95,0.00,,,0.05,Wunderground v.1.15,2013-01-01 19:28:00,
2013-01-01 14:37:00,47.1,45.7,29.95,WSW,257,1.0,1.0,95,0.00,,,0.05,Wunderground v.1.15,2013-01-01 19:37:00,
2013-01-01 14:42:00,47.2,45.8,29.95,SW,225,1.0,8.0,95,0.00,,,0.05,Wunderground v.1.15,2013-01-01 19:42:00,
2013-01-01 14:48:00,47.3,45.9,29.95,SSW,199,0.0,8.0,95,0.00,,,0.05,Wunderground v.1.15,2013-01-01 19:48:00,
2013-01-01 14:53:00,47.4,46.0,29.95,West,261,0.0,8.0,95,0.00,,,0.06,Wunderground v.1.15,2013-01-01 19:53:00,
2013-01-01 15:02:00,47.6,46.2,29.95,SSW,204,0.0,8.0,95,0.00,,,0.06,Wunderground v.1.15,2013-01-01 20:02:00,
2013-01-01 15:08:00,47.7,46.3,29.94,SSW,193,0.0,8.0,95,0.00,,,0.07,Wunderground v.1.15,2013-01-01 20:08:00,
2013-01-01 15:13:00,47.8,46.4,29.94,SSE,166,0.0,8.0,95,0.00,,,0.07,Wunderground v.1.15,2013-01-01 20:13:00,
2013-01-01 15:18:00,47.8,46.7,29.94,SSE,148,0.0,8.0,96,0.00,,,0.07,Wunderground v.1.15,2013-01-01 20:18:00,
2013-01-01 15:27:00,48.0,46.9,29.93,South,182,1.0,1.0,96,0.05,,,0.08,Wunderground v.1.15,2013-01-01 20:27:00,
2013-01-01 15:33:00,48.0,46.9,29.93,South,169,1.0,8.0,96,0.04,,,0.08,Wunderground v.1.15,2013-01-01 20:33:00,
2013-01-01 15:38:00,48.0,46.9,29.93,SSW,205,0.0,8.0,96,0.04,,,0.09,Wunderground v.1.15,2013-01-01 20:38:00,
2013-01-01 15:47:00,48.1,47.0,29.94,SSW,197,1.0,8.0,96,0.04,,,0.09,Wunderground v.1.15,2013-01-01 20:47:00,
2013-01-01 15:53:00,48.2,47.1,29.94,SW,223,1.0,8.0,96,0.00,,,0.09,Wunderground v.1.15,2013-01-01 20:53:00,
2013-01-01 15:58:00,48.3,47.2,29.94,South,186,1.0,1.0,96,0.00,,,0.10,Wunderground v.1.15,2013-01-01 20:58:00,
2013-01-01 16:03:00,48.3,47.2,29.94,SSW,201,0.0,8.0,96,0.00,,,0.10,Wunderground v.1.15,2013-01-01 21:03:00,
2013-01-01 16:12:00,48.3,47.2,29.94,SW,232,0.0,8.0,96,0.00,,,0.10,Wunderground v.1.15,2013-01-01 21:12:00,
2013-01-01 16:18:00,48.3,47.2,29.95,South,184,0.0,8.0,96,0.00,,,0.10,Wunderground v.1.15,2013-01-01 21:18:00,
2013-01-01 16:23:00,48.2,47.1,29.95,South,173,0.0,8.0,96,0.00,,,0.10,Wunderground v.1.15,2013-01-01 21:23:00,
2013-01-01 16:28:00,48.2,47.1,29.95,WSW,248,0.0,8.0,96,0.00,,,0.10,Wunderground v.1.15,2013-01-01 21:28:00,
2013-01-01 16:38:00,48.2,47.1,29.96,SW,219,0.0,8.0,96,0.07,,,0.11,Wunderground v.1.15,2013-01-01 21:38:00,
2013-01-01 16:43:00,48.2,47.1,29.96,SW,219,0.0,8.0,96,0.07,,,0.12,Wunderground v.1.15,2013-01-01 21:43:00,
2013-01-01 16:52:00,48.1,47.0,29.95,SW,219,0.0,8.0,96,0.04,,,0.12,Wunderground v.1.15,2013-01-01 21:52:00,
2013-01-01 16:58:00,48.1,47.0,29.96,SW,219,0.0,8.0,96,0.00,,,0.12,Wunderground v.1.15,2013-01-01 21:58:00,
2013-01-01 17:03:00,48.1,47.0,29.96,SW,219,0.0,8.0,96,0.00,,,0.12,Wunderground v.1.15,2013-01-01 22:03:00,
2013-01-01 17:08:00,48.1,47.0,29.95,SW,219,0.0,8.0,96,0.00,,,0.12,Wunderground v.1.15,2013-01-01 22:08:00,
2013-01-01 17:17:00,48.2,47.1,29.96,SSW,192,0.0,8.0,96,0.00,,,0.12,Wunderground v.1.15,2013-01-01 22:17:00,
2013-01-01 17:23:00,48.3,47.5,29.96,West,269,0.0,8.0,97,0.00,,,0.12,Wunderground v.1.15,2013-01-01 22:23:00,
2013-01-01 17:28:00,48.3,47.5,29.97,SSW,201,1.0,1.0,97,0.00,,,0.12,Wunderground v.1.15,2013-01-01 22:28:00,
2013-01-01 17:33:00,48.4,47.6,29.97,WSW,254,0.0,2.0,97,0.00,,,0.12,Wunderground v.1.15,2013-01-01 22:33:00,
2013-01-01 17:42:00,48.4,47.3,29.97,South,186,1.0,8.0,96,0.00,,,0.13,Wunderground v.1.15,2013-01-01 22:42:00,
2013-01-01 17:48:00,48.4,47.3,29.98,SW,224,1.0,1.0,96,0.00,,,0.13,Wunderground v.1.15,2013-01-01 22:48:00,
2013-01-01 17:53:00,48.4,47.3,29.98,SSW,193,0.0,8.0,96,0.00,,,0.13,Wunderground v.1.15,2013-01-01 22:53:00,
2013-01-01 17:58:00,48.4,47.3,29.98,SW,223,0.0,8.0,96,0.00,,,0.13,Wunderground v.1.15,2013-01-01 22:58:00,
2013-01-01 18:07:00,48.4,47.3,29.98,WSW,243,1.0,1.0,96,0.00,,,0.14,Wunderground v.1.15,2013-01-01 23:07:00,
2013-01-01 18:13:00,48.4,47.3,29.98,South,178,0.0,8.0,96,0.00,,,0.14,Wunderground v.1.15,2013-01-01 23:13:00,
2013-01-01 18:18:00,48.4,47.3,29.97,SSW,199,0.0,8.0,96,0.00,,,0.14,Wunderground v.1.15,2013-01-01 23:18:00,
2013-01-01 18:23:00,48.4,47.3,29.96,SSW,199,0.0,8.0,96,0.00,,,0.14,Wunderground v.1.15,2013-01-01 23:23:00,
2013-01-01 18:32:00,48.3,47.2,29.96,SW,234,0.0,8.0,96,0.00,,,0.14,Wunderground v.1.15,2013-01-01 23:32:00,
2013-01-01 18:38:00,48.3,47.2,29.97,SW,232,0.0,8.0,96,0.00,,,0.14,Wunderground v.1.15,2013-01-01 23:38:00,
2013-01-01 18:43:00,48.3,47.2,29.97,SSW,199,0.0,8.0,96,0.00,,,0.14,Wunderground v.1.15,2013-01-01 23:43:00,
2013-01-01 18:52:00,48.3,47.5,29.97,SSW,199,0.0,8.0,97,0.00,,,0.14,Wunderground v.1.15,2013-01-01 23:52:00,
2013-01-01 18:57:00,48.3,47.5,29.97,SSW,202,0.0,8.0,97,0.00,,,0.15,Wunderground v.1.15,2013-01-01 23:57:00,
2013-01-01 19:03:00,48.3,47.5,29.97,SSW,202,0.0,8.0,97,0.00,,,0.15,Wunderground v.1.15,2013-01-02 00:03:00,
2013-01-01 19:08:00,48.3,47.5,29.97,SSW,192,0.0,8.0,97,0.00,,,0.15,Wunderground v.1.15,2013-01-02 00:08:00,
2013-01-01 19:17:00,48.4,47.6,29.98,SW,235,0.0,8.0,97,0.00,,,0.15,Wunderground v.1.15,2013-01-02 00:17:00,
2013-01-01 19:23:00,48.4,47.6,29.97,SSW,208,0.0,8.0,97,0.00,,,0.16,Wunderground v.1.15,2013-01-02 00:23:00,
2013-01-01 19:28:00,48.4,47.6,29.97,SSW,208,0.0,8.0,97,0.00,,,0.16,Wunderground v.1.15,2013-01-02 00:28:00,
2013-01-01 19:33:00,48.4,47.6,29.97,SSW,209,0.0,8.0,97,0.00,,,0.16,Wunderground v.1.15,2013-01-02 00:33:00,
2013-01-01 19:43:00,48.4,47.6,29.97,SW,215,0.0,8.0,97,0.04,,,0.17,Wunderground v.1.15,2013-01-02 00:43:00,
2013-01-01 19:48:00,48.4,47.6,29.97,SW,215,0.0,8.0,97,0.04,,,0.17,Wunderground v.1.15,2013-01-02 00:48:00,
2013-01-01 19:53:00,48.5,47.7,29.97,SW,217,0.0,8.0,97,0.00,,,0.17,Wunderground v.1.15,2013-01-02 00:53:00,
2013-01-01 20:03:00,48.5,47.7,29.97,SW,217,0.0,8.0,97,0.00,,,0.18,Wunderground v.1.15,2013-01-02 01:03:00,
2013-01-01 20:08:00,48.5,47.7,29.97,SW,217,0.0,8.0,97,0.00,,,0.18,Wunderground v.1.15,2013-01-02 01:08:00,
2013-01-01 20:13:00,48.5,47.7,29.97,SW,217,0.0,8.0,97,0.00,,,0.18,Wunderground v.1.15,2013-01-02 01:13:00,
2013-01-01 20:22:00,48.4,47.6,29.97,SW,217,0.0,8.0,97,0.00,,,0.18,Wunderground v.1.15,2013-01-02 01:22:00,
2013-01-01 20:28:00,48.4,47.6,29.97,SW,217,0.0,8.0,97,0.00,,,0.18,Wunderground v.1.15,2013-01-02 01:28:00,
2013-01-01 20:33:00,48.4,47.6,29.97,SW,217,0.0,8.0,97,0.00,,,0.18,Wunderground v.1.15,2013-01-02 01:33:00,
2013-01-01 20:38:00,48.4,47.6,29.97,SW,217,0.0,8.0,97,0.00,,,0.18,Wunderground v.1.15,2013-01-02 01:38:00,
2013-01-01 20:47:00,48.5,47.7,29.98,SW,217,0.0,8.0,97,0.00,,,0.19,Wunderground v.1.15,2013-01-02 01:47:00,
2013-01-01 20:53:00,48.5,47.7,29.98,SW,217,0.0,8.0,97,0.00,,,0.19,Wunderground v.1.15,2013-01-02 01:53:00,
2013-01-01 20:58:00,48.6,47.8,29.98,SW,233,0.0,8.0,97,0.04,,,0.20,Wunderground v.1.15,2013-01-02 01:58:00,
2013-01-01 21:07:00,48.7,47.9,29.98,SW,233,0.0,8.0,97,0.04,,,0.20,Wunderground v.1.15,2013-01-02 02:07:00,
2013-01-01 21:13:00,48.7,47.9,29.98,SW,233,0.0,8.0,97,0.00,,,0.20,Wunderground v.1.15,2013-01-02 02:13:00,
2013-01-01 21:18:00,48.7,47.9,29.98,SW,233,0.0,8.0,97,0.00,,,0.20,Wunderground v.1.15,2013-01-02 02:18:00,
2013-01-01 21:23:00,48.7,47.9,29.98,SW,233,0.0,8.0,97,0.00,,,0.21,Wunderground v.1.15,2013-01-02 02:23:00,
2013-01-01 21:32:00,48.7,47.9,29.97,SW,233,0.0,8.0,97,0.00,,,0.21,Wunderground v.1.15,2013-01-02 02:32:00,
2013-01-01 21:38:00,48.7,47.9,29.96,SW,233,0.0,8.0,97,0.00,,,0.21,Wunderground v.1.15,2013-01-02 02:38:00,
2013-01-01 21:43:00,48.7,47.9,29.95,SW,233,0.0,8.0,97,0.00,,,0.21,Wunderground v.1.15,2013-01-02 02:43:00,
2013-01-01 21:52:00,48.6,47.8,29.96,SW,233,0.0,8.0,97,0.00,,,0.21,Wunderground v.1.15,2013-01-02 02:52:00,
2013-01-01 21:57:00,48.5,47.7,29.95,SW,233,0.0,8.0,97,0.00,,,0.21,Wunderground v.1.15,2013-01-02 02:57:00,
2013-01-01 22:03:00,48.5,47.7,29.95,SW,233,0.0,8.0,97,0.00,,,0.21,Wunderground v.1.15,2013-01-02 03:03:00,
2013-01-01 22:08:00,48.4,47.6,29.96,SW,233,0.0,8.0,97,0.00,,,0.21,Wunderground v.1.15,2013-01-02 03:08:00,
2013-01-01 22:18:00,48.4,47.6,29.97,SW,233,0.0,8.0,97,0.00,,,0.22,Wunderground v.1.15,2013-01-02 03:18:00,
2013-01-01 22:23:00,48.4,47.6,29.97,SW,233,0.0,8.0,97,0.00,,,0.22,Wunderground v.1.15,2013-01-02 03:23:00,
2013-01-01 22:32:00,48.3,47.5,29.97,SW,233,0.0,8.0,97,0.00,,,0.22,Wunderground v.1.15,2013-01-02 03:32:00,
2013-01-01 22:37:00,48.3,47.5,29.97,SW,233,0.0,8.0,97,0.00,,,0.22,Wunderground v.1.15,2013-01-02 03:37:00,
2013-01-01 22:43:00,48.2,47.4,29.96,SW,233,0.0,8.0,97,0.00,,,0.22,Wunderground v.1.15,2013-01-02 03:43:00,
2013-01-01 22:48:00,48.1,47.3,29.96,SW,233,0.0,8.0,97,0.00,,,0.22,Wunderground v.1.15,2013-01-02 03:48:00,
2013-01-01 22:53:00,48.1,47.3,29.96,SW,233,0.0,8.0,97,0.00,,,0.22,Wunderground v.1.15,2013-01-02 03:53:00,
2013-01-01 23:02:00,48.2,47.4,29.97,SW,233,0.0,8.0,97,0.00,,,0.22,Wunderground v.1.15,2013-01-02 04:02:00,
2013-01-01 23:08:00,48.2,47.4,29.97,SW,233,0.0,8.0,97,0.00,,,0.22,Wunderground v.1.15,2013-01-02 04:08:00,
2013-01-01 23:13:00,48.1,47.3,29.97,SW,233,0.0,8.0,97,0.00,,,0.23,Wunderground v.1.15,2013-01-02 04:13:00,
2013-01-01 23:18:00,48.1,47.3,29.96,SW,233,0.0,8.0,97,0.00,,,0.23,Wunderground v.1.15,2013-01-02 04:18:00,
2013-01-01 23:28:00,48.1,47.3,29.95,SW,233,0.0,8.0,97,0.00,,,0.23,Wunderground v.1.15,2013-01-02 04:28:00,
2013-01-01 23:33:00,48.1,47.3,29.95,SW,233,0.0,8.0,97,0.00,,,0.24,Wunderground v.1.15,2013-01-02 04:33:00,
2013-01-01 23:42:00,47.9,47.1,29.94,SW,233,0.0,8.0,97,0.00,,,0.24,Wunderground v.1.15,2013-01-02 04:42:00,
2013-01-01 23:48:00,47.9,47.1,29.95,SW,233,0.0,8.0,97,0.00,,,0.24,Wunderground v.1.15,2013-01-02 04:48:00,
2013-01-01 23:53:00,48.0,47.2,29.95,SW,233,0.0,8.0,97,0.00,,,0.24,Wunderground v.1.15,2013-01-02 04:53:00,
2013-01-01 23:58:00,48.0,47.2,29.94,SW,233,0.0,0.0,97,0.00,,,0.24,Wunderground v.1.15,2013-01-02 04:58:00,